sensor_id;sensor_type;location;lat;lon;timestamp;temperature;humidity
13344;DHT22;6741;48.964;9.406;2023-07-13T00:00:46;19.40;1.00
13344;DHT22;6741;48.964;9.406;2023-07-13T00:03:13;19.40;1.00
13344;DHT22;6741;48.964;9.406;2023-07-13T00:05:40;19.40;1.00
13344;DHT22;6741;48.964;9.406;2023-07-13T00:08:07;19.40;1.00
13344;DHT22;6741;48.964;9.406;2023-07-13T00:10:40;19.30;1.00
13344;DHT22;6741;48.964;9.406;2023-07-13T00:13:07;19.30;1.00
13344;DHT22;6741;48.964;9.406;2023-07-13T00:15:35;19.20;1.00
13344;DHT22;6741;48.964;9.406;2023-07-13T00:18:02;19.20;1.00
13344;DHT22;6741;48.964;9.406;2023-07-13T00:20:29;19.10;1.00
13344;DHT22;6741;48.964;9.406;2023-07-13T00:22:56;19.00;1.00
13344;DHT22;6741;48.964;9.406;2023-07-13T00:25:23;19.00;1.00
13344;DHT22;6741;48.964;9.406;2023-07-13T00:27:54;19.00;1.00
13344;DHT22;6741;48.964;9.406;2023-07-13T00:30:22;19.00;99.90
13344;DHT22;6741;48.964;9.406;2023-07-13T00:32:49;19.00;99.90
13344;DHT22;6741;48.964;9.406;2023-07-13T00:35:16;19.00;1.00
13344;DHT22;6741;48.964;9.406;2023-07-13T00:37:43;18.90;99.90
13344;DHT22;6741;48.964;9.406;2023-07-13T00:40:12;18.80;99.90
13344;DHT22;6741;48.964;9.406;2023-07-13T00:42:39;18.80;99.90
13344;DHT22;6741;48.964;9.406;2023-07-13T00:48:08;18.80;1.00
13344;DHT22;6741;48.964;9.406;2023-07-13T00:50:35;18.80;80.10
13344;DHT22;6741;48.964;9.406;2023-07-13T00:53:02;18.70;96.00
13344;DHT22;6741;48.964;9.406;2023-07-13T00:55:29;18.70;1.00
13344;DHT22;6741;48.964;9.406;2023-07-13T00:57:56;18.60;1.00
13344;DHT22;6741;48.964;9.406;2023-07-13T01:00:25;18.60;1.00
13344;DHT22;6741;48.964;9.406;2023-07-13T01:02:53;18.50;1.00
13344;DHT22;6741;48.964;9.406;2023-07-13T01:05:24;18.50;82.40
13344;DHT22;6741;48.964;9.406;2023-07-13T01:07:52;18.40;99.90
13344;DHT22;6741;48.964;9.406;2023-07-13T01:10:21;18.40;99.90
13344;DHT22;6741;48.964;9.406;2023-07-13T01:12:49;18.40;99.90
13344;DHT22;6741;48.964;9.406;2023-07-13T01:15:36;18.30;99.90
13344;DHT22;6741;48.964;9.406;2023-07-13T01:18:04;18.30;99.90
13344;DHT22;6741;48.964;9.406;2023-07-13T01:20:33;18.20;99.90
13344;DHT22;6741;48.964;9.406;2023-07-13T01:23:05;18.10;1.00
13344;DHT22;6741;48.964;9.406;2023-07-13T01:25:33;18.00;1.00
13344;DHT22;6741;48.964;9.406;2023-07-13T01:28:00;18.00;1.00
13344;DHT22;6741;48.964;9.406;2023-07-13T01:30:27;17.90;1.00
13344;DHT22;6741;48.964;9.406;2023-07-13T01:32:54;17.80;1.00
13344;DHT22;6741;48.964;9.406;2023-07-13T01:35:21;17.80;1.00
13344;DHT22;6741;48.964;9.406;2023-07-13T01:37:48;17.70;1.00
13344;DHT22;6741;48.964;9.406;2023-07-13T01:40:17;17.70;1.00
13344;DHT22;6741;48.964;9.406;2023-07-13T01:42:44;17.60;1.00
13344;DHT22;6741;48.964;9.406;2023-07-13T01:45:11;17.50;1.00
13344;DHT22;6741;48.964;9.406;2023-07-13T01:47:38;17.40;1.00
13344;DHT22;6741;48.964;9.406;2023-07-13T01:50:05;17.20;13.80
13344;DHT22;6741;48.964;9.406;2023-07-13T01:52:32;17.00;30.90
13344;DHT22;6741;48.964;9.406;2023-07-13T01:54:59;16.80;47.40
13344;DHT22;6741;48.964;9.406;2023-07-13T01:57:27;16.70;61.20
13344;DHT22;6741;48.964;9.406;2023-07-13T01:59:54;16.60;64.10
13344;DHT22;6741;48.964;9.406;2023-07-13T02:02:21;16.60;56.00
13344;DHT22;6741;48.964;9.406;2023-07-13T02:04:48;16.60;71.40
13344;DHT22;6741;48.964;9.406;2023-07-13T02:07:15;16.50;80.90
13344;DHT22;6741;48.964;9.406;2023-07-13T02:09:42;16.50;81.00
13344;DHT22;6741;48.964;9.406;2023-07-13T02:12:09;16.50;73.70
13344;DHT22;6741;48.964;9.406;2023-07-13T02:14:37;16.50;82.00
13344;DHT22;6741;48.964;9.406;2023-07-13T02:17:04;16.50;90.60
13344;DHT22;6741;48.964;9.406;2023-07-13T02:19:32;16.50;86.10
13344;DHT22;6741;48.964;9.406;2023-07-13T02:21:58;16.50;96.50
13344;DHT22;6741;48.964;9.406;2023-07-13T02:24:25;16.50;99.90
13344;DHT22;6741;48.964;9.406;2023-07-13T02:26:53;16.40;99.90
13344;DHT22;6741;48.964;9.406;2023-07-13T02:29:19;16.40;99.90
13344;DHT22;6741;48.964;9.406;2023-07-13T02:31:48;16.30;99.90
13344;DHT22;6741;48.964;9.406;2023-07-13T02:34:15;16.30;99.90
13344;DHT22;6741;48.964;9.406;2023-07-13T02:36:41;16.20;99.90
13344;DHT22;6741;48.964;9.406;2023-07-13T02:39:09;16.20;99.90
13344;DHT22;6741;48.964;9.406;2023-07-13T02:41:37;16.20;99.90
13344;DHT22;6741;48.964;9.406;2023-07-13T02:44:04;16.10;99.90
13344;DHT22;6741;48.964;9.406;2023-07-13T02:46:34;16.00;99.90
13344;DHT22;6741;48.964;9.406;2023-07-13T02:49:03;16.00;99.90
13344;DHT22;6741;48.964;9.406;2023-07-13T02:51:30;15.90;99.90
13344;DHT22;6741;48.964;9.406;2023-07-13T02:53:59;15.80;99.90
13344;DHT22;6741;48.964;9.406;2023-07-13T02:56:28;15.70;99.90
13344;DHT22;6741;48.964;9.406;2023-07-13T02:58:55;15.60;99.90
13344;DHT22;6741;48.964;9.406;2023-07-13T03:01:22;15.50;99.90
13344;DHT22;6741;48.964;9.406;2023-07-13T03:03:50;15.40;99.90
13344;DHT22;6741;48.964;9.406;2023-07-13T03:06:19;15.40;99.90
13344;DHT22;6741;48.964;9.406;2023-07-13T03:08:47;15.40;99.90
13344;DHT22;6741;48.964;9.406;2023-07-13T03:11:17;15.30;99.90
13344;DHT22;6741;48.964;9.406;2023-07-13T03:13:44;15.40;99.90
13344;DHT22;6741;48.964;9.406;2023-07-13T03:16:11;15.40;99.90
13344;DHT22;6741;48.964;9.406;2023-07-13T03:18:38;15.40;99.90
13344;DHT22;6741;48.964;9.406;2023-07-13T03:21:06;15.50;99.90
13344;DHT22;6741;48.964;9.406;2023-07-13T03:23:34;15.50;99.90
13344;DHT22;6741;48.964;9.406;2023-07-13T03:26:03;15.60;99.90
13344;DHT22;6741;48.964;9.406;2023-07-13T03:28:30;15.60;99.90
13344;DHT22;6741;48.964;9.406;2023-07-13T03:31:01;15.70;99.90
13344;DHT22;6741;48.964;9.406;2023-07-13T03:33:28;15.70;99.90
13344;DHT22;6741;48.964;9.406;2023-07-13T03:35:56;15.70;99.90
13344;DHT22;6741;48.964;9.406;2023-07-13T03:38:22;15.70;99.90
13344;DHT22;6741;48.964;9.406;2023-07-13T03:40:51;15.60;99.90
13344;DHT22;6741;48.964;9.406;2023-07-13T03:43:18;15.60;99.90
13344;DHT22;6741;48.964;9.406;2023-07-13T03:45:46;15.50;99.90
13344;DHT22;6741;48.964;9.406;2023-07-13T03:48:13;15.50;99.90
13344;DHT22;6741;48.964;9.406;2023-07-13T03:50:40;15.50;99.90
13344;DHT22;6741;48.964;9.406;2023-07-13T03:53:07;15.50;99.90
13344;DHT22;6741;48.964;9.406;2023-07-13T03:55:34;15.40;99.90
13344;DHT22;6741;48.964;9.406;2023-07-13T03:58:26;15.40;99.90
13344;DHT22;6741;48.964;9.406;2023-07-13T04:00:54;15.40;99.90
13344;DHT22;6741;48.964;9.406;2023-07-13T04:03:21;15.30;99.90
13344;DHT22;6741;48.964;9.406;2023-07-13T04:05:48;15.30;99.90
13344;DHT22;6741;48.964;9.406;2023-07-13T04:08:14;15.20;99.90
13344;DHT22;6741;48.964;9.406;2023-07-13T04:10:42;15.30;99.90
13344;DHT22;6741;48.964;9.406;2023-07-13T04:13:11;15.30;99.90
13344;DHT22;6741;48.964;9.406;2023-07-13T04:15:39;15.20;99.90
13344;DHT22;6741;48.964;9.406;2023-07-13T04:18:05;15.20;99.90
13344;DHT22;6741;48.964;9.406;2023-07-13T04:20:32;15.20;99.90
13344;DHT22;6741;48.964;9.406;2023-07-13T04:22:59;15.10;99.90
13344;DHT22;6741;48.964;9.406;2023-07-13T04:25:27;15.00;99.90
13344;DHT22;6741;48.964;9.406;2023-07-13T04:27:54;14.90;99.90
13344;DHT22;6741;48.964;9.406;2023-07-13T04:30:23;14.90;99.90
13344;DHT22;6741;48.964;9.406;2023-07-13T04:32:51;14.90;99.90
13344;DHT22;6741;48.964;9.406;2023-07-13T04:35:19;14.90;99.90
13344;DHT22;6741;48.964;9.406;2023-07-13T04:37:47;15.00;99.90
13344;DHT22;6741;48.964;9.406;2023-07-13T04:40:16;15.00;99.90
13344;DHT22;6741;48.964;9.406;2023-07-13T04:42:43;15.00;99.90
13344;DHT22;6741;48.964;9.406;2023-07-13T04:45:11;15.00;99.90
13344;DHT22;6741;48.964;9.406;2023-07-13T04:47:40;15.00;99.90
13344;DHT22;6741;48.964;9.406;2023-07-13T04:50:08;15.00;99.90
13344;DHT22;6741;48.964;9.406;2023-07-13T04:52:36;15.00;99.90
13344;DHT22;6741;48.964;9.406;2023-07-13T04:55:03;15.10;99.90
13344;DHT22;6741;48.964;9.406;2023-07-13T04:57:31;15.00;99.90
13344;DHT22;6741;48.964;9.406;2023-07-13T04:59:58;15.10;99.90
13344;DHT22;6741;48.964;9.406;2023-07-13T05:02:26;15.10;99.90
13344;DHT22;6741;48.964;9.406;2023-07-13T05:04:55;15.10;99.90
13344;DHT22;6741;48.964;9.406;2023-07-13T05:07:22;15.10;99.90
13344;DHT22;6741;48.964;9.406;2023-07-13T05:09:49;15.10;99.90
13344;DHT22;6741;48.964;9.406;2023-07-13T05:12:15;15.20;99.90
13344;DHT22;6741;48.964;9.406;2023-07-13T05:14:43;15.30;99.90
13344;DHT22;6741;48.964;9.406;2023-07-13T05:17:10;15.40;99.90
13344;DHT22;6741;48.964;9.406;2023-07-13T05:19:37;15.50;99.90
13344;DHT22;6741;48.964;9.406;2023-07-13T05:22:05;15.70;99.90
13344;DHT22;6741;48.964;9.406;2023-07-13T05:24:32;15.90;99.90
13344;DHT22;6741;48.964;9.406;2023-07-13T05:26:59;16.00;99.90
13344;DHT22;6741;48.964;9.406;2023-07-13T05:29:26;16.10;99.90
13344;DHT22;6741;48.964;9.406;2023-07-13T05:31:53;16.30;99.90
13344;DHT22;6741;48.964;9.406;2023-07-13T05:34:20;16.40;99.90
13344;DHT22;6741;48.964;9.406;2023-07-13T05:36:46;16.50;99.90
13344;DHT22;6741;48.964;9.406;2023-07-13T05:39:15;16.50;99.90
13344;DHT22;6741;48.964;9.406;2023-07-13T05:41:42;16.60;99.90
13344;DHT22;6741;48.964;9.406;2023-07-13T05:44:09;16.70;99.90
13344;DHT22;6741;48.964;9.406;2023-07-13T05:46:35;16.80;99.90
13344;DHT22;6741;48.964;9.406;2023-07-13T05:49:02;16.90;99.90
13344;DHT22;6741;48.964;9.406;2023-07-13T05:51:29;17.00;99.90
13344;DHT22;6741;48.964;9.406;2023-07-13T05:53:56;17.10;99.90
13344;DHT22;6741;48.964;9.406;2023-07-13T05:56:24;17.10;99.90
13344;DHT22;6741;48.964;9.406;2023-07-13T05:58:52;17.20;99.90
13344;DHT22;6741;48.964;9.406;2023-07-13T06:01:19;17.30;99.90
13344;DHT22;6741;48.964;9.406;2023-07-13T06:03:48;17.40;99.90
13344;DHT22;6741;48.964;9.406;2023-07-13T06:06:15;17.40;99.90
13344;DHT22;6741;48.964;9.406;2023-07-13T06:08:43;17.40;99.90
13344;DHT22;6741;48.964;9.406;2023-07-13T06:11:14;17.40;99.90
13344;DHT22;6741;48.964;9.406;2023-07-13T06:13:42;17.50;99.90
13344;DHT22;6741;48.964;9.406;2023-07-13T06:16:10;17.60;99.90
13344;DHT22;6741;48.964;9.406;2023-07-13T06:18:37;17.60;99.90
13344;DHT22;6741;48.964;9.406;2023-07-13T06:21:08;17.80;99.90
13344;DHT22;6741;48.964;9.406;2023-07-13T06:23:35;17.90;67.50
13344;DHT22;6741;48.964;9.406;2023-07-13T06:26:02;18.00;29.60
13344;DHT22;6741;48.964;9.406;2023-07-13T06:28:30;18.20;10.00
13344;DHT22;6741;48.964;9.406;2023-07-13T06:30:58;18.20;1.40
13344;DHT22;6741;48.964;9.406;2023-07-13T06:33:25;18.20;1.00
13344;DHT22;6741;48.964;9.406;2023-07-13T06:35:53;18.20;1.00
13344;DHT22;6741;48.964;9.406;2023-07-13T06:38:20;18.30;1.00
13344;DHT22;6741;48.964;9.406;2023-07-13T06:40:47;18.20;1.00
13344;DHT22;6741;48.964;9.406;2023-07-13T06:43:14;18.30;1.00
13344;DHT22;6741;48.964;9.406;2023-07-13T06:45:43;18.30;1.00
13344;DHT22;6741;48.964;9.406;2023-07-13T06:48:12;18.30;2.40
13344;DHT22;6741;48.964;9.406;2023-07-13T06:50:39;18.40;1.00
13344;DHT22;6741;48.964;9.406;2023-07-13T06:53:07;18.40;1.00
13344;DHT22;6741;48.964;9.406;2023-07-13T06:55:34;18.50;1.00
13344;DHT22;6741;48.964;9.406;2023-07-13T06:58:01;18.70;1.00
13344;DHT22;6741;48.964;9.406;2023-07-13T07:00:28;19.00;1.00
13344;DHT22;6741;48.964;9.406;2023-07-13T07:02:55;19.10;1.00
13344;DHT22;6741;48.964;9.406;2023-07-13T07:05:23;19.20;99.90
13344;DHT22;6741;48.964;9.406;2023-07-13T07:07:51;19.30;81.60
13344;DHT22;6741;48.964;9.406;2023-07-13T07:10:18;19.40;1.00
13344;DHT22;6741;48.964;9.406;2023-07-13T07:12:45;19.60;14.00
13344;DHT22;6741;48.964;9.406;2023-07-13T07:15:13;19.70;1.00
13344;DHT22;6741;48.964;9.406;2023-07-13T07:17:40;19.60;1.00
13344;DHT22;6741;48.964;9.406;2023-07-13T07:20:07;19.60;75.60
13344;DHT22;6741;48.964;9.406;2023-07-13T07:22:36;19.70;99.90
13344;DHT22;6741;48.964;9.406;2023-07-13T07:25:03;19.70;99.90
13344;DHT22;6741;48.964;9.406;2023-07-13T07:27:30;19.60;99.90
13344;DHT22;6741;48.964;9.406;2023-07-13T07:29:57;19.60;1.00
13344;DHT22;6741;48.964;9.406;2023-07-13T07:32:24;19.90;99.90
13344;DHT22;6741;48.964;9.406;2023-07-13T07:34:51;19.90;99.90
13344;DHT22;6741;48.964;9.406;2023-07-13T07:37:18;20.00;1.00
13344;DHT22;6741;48.964;9.406;2023-07-13T07:39:46;19.90;99.90
13344;DHT22;6741;48.964;9.406;2023-07-13T07:42:12;20.10;99.90
13344;DHT22;6741;48.964;9.406;2023-07-13T07:44:40;20.30;99.90
13344;DHT22;6741;48.964;9.406;2023-07-13T07:47:08;20.40;1.00
13344;DHT22;6741;48.964;9.406;2023-07-13T07:49:35;20.30;1.00
13344;DHT22;6741;48.964;9.406;2023-07-13T07:52:02;20.50;1.00
13344;DHT22;6741;48.964;9.406;2023-07-13T07:54:28;20.60;1.00
13344;DHT22;6741;48.964;9.406;2023-07-13T07:56:57;20.70;99.90
13344;DHT22;6741;48.964;9.406;2023-07-13T07:59:24;20.50;1.00
13344;DHT22;6741;48.964;9.406;2023-07-13T08:01:51;20.60;99.90
13344;DHT22;6741;48.964;9.406;2023-07-13T08:04:17;20.70;99.90
13344;DHT22;6741;48.964;9.406;2023-07-13T08:06:44;20.80;1.00
13344;DHT22;6741;48.964;9.406;2023-07-13T08:09:11;21.00;1.00
13344;DHT22;6741;48.964;9.406;2023-07-13T08:11:38;21.00;1.00
13344;DHT22;6741;48.964;9.406;2023-07-13T08:14:06;20.90;1.00
13344;DHT22;6741;48.964;9.406;2023-07-13T08:16:34;20.80;99.90
13344;DHT22;6741;48.964;9.406;2023-07-13T08:19:01;20.70;1.00
13344;DHT22;6741;48.964;9.406;2023-07-13T08:21:29;20.90;26.70
13344;DHT22;6741;48.964;9.406;2023-07-13T08:23:56;21.10;99.20
13344;DHT22;6741;48.964;9.406;2023-07-13T08:26:23;21.40;99.90
13344;DHT22;6741;48.964;9.406;2023-07-13T08:28:50;21.60;99.90
13344;DHT22;6741;48.964;9.406;2023-07-13T08:31:18;21.80;8.10
13344;DHT22;6741;48.964;9.406;2023-07-13T08:33:45;22.10;1.00
13344;DHT22;6741;48.964;9.406;2023-07-13T08:36:12;22.00;1.00
13344;DHT22;6741;48.964;9.406;2023-07-13T08:38:39;22.00;99.90
13344;DHT22;6741;48.964;9.406;2023-07-13T08:41:12;21.90;1.00
13344;DHT22;6741;48.964;9.406;2023-07-13T08:43:40;22.20;1.00
13344;DHT22;6741;48.964;9.406;2023-07-13T08:46:12;22.30;99.90
13344;DHT22;6741;48.964;9.406;2023-07-13T08:48:44;22.20;99.90
13344;DHT22;6741;48.964;9.406;2023-07-13T08:51:27;22.60;99.90
13344;DHT22;6741;48.964;9.406;2023-07-13T08:53:59;22.60;99.90
13344;DHT22;6741;48.964;9.406;2023-07-13T08:56:28;22.60;99.90
13344;DHT22;6741;48.964;9.406;2023-07-13T08:58:58;22.80;99.90
13344;DHT22;6741;48.964;9.406;2023-07-13T09:01:31;22.80;99.90
13344;DHT22;6741;48.964;9.406;2023-07-13T09:04:05;22.70;99.90
13344;DHT22;6741;48.964;9.406;2023-07-13T09:06:42;22.80;99.90
13344;DHT22;6741;48.964;9.406;2023-07-13T09:09:22;22.80;99.90
13344;DHT22;6741;48.964;9.406;2023-07-13T09:11:56;23.10;99.90
13344;DHT22;6741;48.964;9.406;2023-07-13T09:14:41;22.70;99.90
13344;DHT22;6741;48.964;9.406;2023-07-13T09:17:14;22.90;99.90
13344;DHT22;6741;48.964;9.406;2023-07-13T09:19:47;23.30;99.90
13344;DHT22;6741;48.964;9.406;2023-07-13T09:22:19;23.50;99.90
13344;DHT22;6741;48.964;9.406;2023-07-13T09:24:53;23.20;99.90
13344;DHT22;6741;48.964;9.406;2023-07-13T09:27:23;23.20;99.90
13344;DHT22;6741;48.964;9.406;2023-07-13T09:29:57;23.30;99.90
13344;DHT22;6741;48.964;9.406;2023-07-13T09:32:26;23.80;99.90
13344;DHT22;6741;48.964;9.406;2023-07-13T09:34:55;24.00;99.90
13344;DHT22;6741;48.964;9.406;2023-07-13T09:37:28;23.80;1.00
13344;DHT22;6741;48.964;9.406;2023-07-13T09:39:56;23.60;99.90
13344;DHT22;6741;48.964;9.406;2023-07-13T09:42:25;23.50;99.90
13344;DHT22;6741;48.964;9.406;2023-07-13T09:44:55;23.80;1.00
13344;DHT22;6741;48.964;9.406;2023-07-13T09:47:25;24.00;99.90
13344;DHT22;6741;48.964;9.406;2023-07-13T09:49:59;23.80;99.90
13344;DHT22;6741;48.964;9.406;2023-07-13T09:52:27;23.10;99.90
13344;DHT22;6741;48.964;9.406;2023-07-13T09:54:55;23.50;99.90
13344;DHT22;6741;48.964;9.406;2023-07-13T09:57:26;23.40;99.90
13344;DHT22;6741;48.964;9.406;2023-07-13T09:59:55;23.80;99.90
13344;DHT22;6741;48.964;9.406;2023-07-13T10:02:26;23.90;99.90
13344;DHT22;6741;48.964;9.406;2023-07-13T10:04:59;24.20;99.90
13344;DHT22;6741;48.964;9.406;2023-07-13T10:07:26;24.70;1.00
13344;DHT22;6741;48.964;9.406;2023-07-13T10:09:54;24.10;1.00
13344;DHT22;6741;48.964;9.406;2023-07-13T10:12:21;24.30;1.00
13344;DHT22;6741;48.964;9.406;2023-07-13T10:14:51;24.40;99.90
13344;DHT22;6741;48.964;9.406;2023-07-13T10:17:26;24.60;1.00
13344;DHT22;6741;48.964;9.406;2023-07-13T10:19:59;24.20;99.90
13344;DHT22;6741;48.964;9.406;2023-07-13T10:22:41;24.40;99.90
13344;DHT22;6741;48.964;9.406;2023-07-13T10:25:15;24.60;99.90
13344;DHT22;6741;48.964;9.406;2023-07-13T10:27:44;24.80;1.00
13344;DHT22;6741;48.964;9.406;2023-07-13T10:30:16;24.70;1.00
13344;DHT22;6741;48.964;9.406;2023-07-13T10:32:44;24.80;1.00
13344;DHT22;6741;48.964;9.406;2023-07-13T10:35:14;24.50;1.00
13344;DHT22;6741;48.964;9.406;2023-07-13T10:37:46;24.80;1.00
13344;DHT22;6741;48.964;9.406;2023-07-13T10:40:19;24.70;1.00
13344;DHT22;6741;48.964;9.406;2023-07-13T10:42:50;25.00;3.30
13344;DHT22;6741;48.964;9.406;2023-07-13T10:45:20;25.70;39.60
13344;DHT22;6741;48.964;9.406;2023-07-13T10:47:49;25.10;99.90
13344;DHT22;6741;48.964;9.406;2023-07-13T10:50:23;25.20;99.90
13344;DHT22;6741;48.964;9.406;2023-07-13T10:52:52;25.30;99.90
13344;DHT22;6741;48.964;9.406;2023-07-13T10:55:34;25.10;99.90
13344;DHT22;6741;48.964;9.406;2023-07-13T10:58:03;24.60;99.90
13344;DHT22;6741;48.964;9.406;2023-07-13T11:00:46;25.10;99.90
13344;DHT22;6741;48.964;9.406;2023-07-13T11:03:15;25.30;99.90
13344;DHT22;6741;48.964;9.406;2023-07-13T11:05:43;25.30;99.90
13344;DHT22;6741;48.964;9.406;2023-07-13T11:08:23;25.30;99.90
13344;DHT22;6741;48.964;9.406;2023-07-13T11:10:58;25.40;99.90
13344;DHT22;6741;48.964;9.406;2023-07-13T11:16:43;25.30;99.90
13344;DHT22;6741;48.964;9.406;2023-07-13T11:19:37;26.60;99.90
13344;DHT22;6741;48.964;9.406;2023-07-13T11:22:21;26.80;1.00
13344;DHT22;6741;48.964;9.406;2023-07-13T11:24:57;26.50;1.00
13344;DHT22;6741;48.964;9.406;2023-07-13T11:27:42;26.30;99.90
13344;DHT22;6741;48.964;9.406;2023-07-13T11:30:32;26.60;1.00
13344;DHT22;6741;48.964;9.406;2023-07-13T11:33:14;27.70;1.00
13344;DHT22;6741;48.964;9.406;2023-07-13T11:35:57;27.10;99.90
13344;DHT22;6741;48.964;9.406;2023-07-13T11:38:33;27.10;99.90
13344;DHT22;6741;48.964;9.406;2023-07-13T11:41:04;27.50;1.00
13344;DHT22;6741;48.964;9.406;2023-07-13T11:43:31;28.50;99.90
13344;DHT22;6741;48.964;9.406;2023-07-13T11:46:12;29.50;1.00
13344;DHT22;6741;48.964;9.406;2023-07-13T11:48:39;28.60;1.00
13344;DHT22;6741;48.964;9.406;2023-07-13T11:51:09;27.30;1.00
13344;DHT22;6741;48.964;9.406;2023-07-13T11:53:45;27.30;1.00
13344;DHT22;6741;48.964;9.406;2023-07-13T11:56:12;28.20;1.00
13344;DHT22;6741;48.964;9.406;2023-07-13T11:58:40;28.60;1.00
13344;DHT22;6741;48.964;9.406;2023-07-13T12:01:16;28.60;1.00
13344;DHT22;6741;48.964;9.406;2023-07-13T12:03:45;28.40;99.90
13344;DHT22;6741;48.964;9.406;2023-07-13T12:06:26;27.00;1.00
13344;DHT22;6741;48.964;9.406;2023-07-13T12:08:58;27.50;99.90
13344;DHT22;6741;48.964;9.406;2023-07-13T12:11:27;28.40;99.90
13344;DHT22;6741;48.964;9.406;2023-07-13T12:13:54;27.90;99.90
13344;DHT22;6741;48.964;9.406;2023-07-13T12:16:28;26.40;99.90
13344;DHT22;6741;48.964;9.406;2023-07-13T12:18:56;26.90;11.90
13344;DHT22;6741;48.964;9.406;2023-07-13T12:21:29;27.40;1.00
13344;DHT22;6741;48.964;9.406;2023-07-13T12:23:58;28.10;1.00
13344;DHT22;6741;48.964;9.406;2023-07-13T12:26:28;29.00;99.90
13344;DHT22;6741;48.964;9.406;2023-07-13T12:28:57;29.60;99.90
13344;DHT22;6741;48.964;9.406;2023-07-13T12:31:31;29.10;99.90
13344;DHT22;6741;48.964;9.406;2023-07-13T12:34:02;29.20;99.90
13344;DHT22;6741;48.964;9.406;2023-07-13T12:36:32;28.90;1.00
13344;DHT22;6741;48.964;9.406;2023-07-13T12:39:06;29.50;1.00
13344;DHT22;6741;48.964;9.406;2023-07-13T12:41:37;30.10;9.10
13344;DHT22;6741;48.964;9.406;2023-07-13T12:44:07;29.90;88.10
13344;DHT22;6741;48.964;9.406;2023-07-13T12:46:35;30.10;1.00
13344;DHT22;6741;48.964;9.406;2023-07-13T12:49:05;29.40;99.90
13344;DHT22;6741;48.964;9.406;2023-07-13T12:51:33;29.60;99.90
13344;DHT22;6741;48.964;9.406;2023-07-13T12:54:13;30.80;99.90
13344;DHT22;6741;48.964;9.406;2023-07-13T12:56:40;31.10;99.90
13344;DHT22;6741;48.964;9.406;2023-07-13T12:59:16;32.20;99.90
13344;DHT22;6741;48.964;9.406;2023-07-13T13:01:45;31.50;99.90
13344;DHT22;6741;48.964;9.406;2023-07-13T13:04:12;29.80;1.00
13344;DHT22;6741;48.964;9.406;2023-07-13T13:06:40;28.50;99.90
13344;DHT22;6741;48.964;9.406;2023-07-13T13:09:12;29.70;99.90
13344;DHT22;6741;48.964;9.406;2023-07-13T13:11:40;30.40;1.00
13344;DHT22;6741;48.964;9.406;2023-07-13T13:14:07;31.10;99.90
13344;DHT22;6741;48.964;9.406;2023-07-13T13:16:37;30.00;1.00
13344;DHT22;6741;48.964;9.406;2023-07-13T13:19:13;28.00;1.00
13344;DHT22;6741;48.964;9.406;2023-07-13T13:21:42;29.20;1.00
13344;DHT22;6741;48.964;9.406;2023-07-13T13:24:12;28.40;99.90
13344;DHT22;6741;48.964;9.406;2023-07-13T13:26:40;30.20;99.90
13344;DHT22;6741;48.964;9.406;2023-07-13T13:29:12;31.20;99.90
13344;DHT22;6741;48.964;9.406;2023-07-13T13:31:40;30.30;99.90
13344;DHT22;6741;48.964;9.406;2023-07-13T13:34:09;29.60;1.00
13344;DHT22;6741;48.964;9.406;2023-07-13T13:36:36;30.20;99.90
13344;DHT22;6741;48.964;9.406;2023-07-13T13:39:04;30.10;1.00
13344;DHT22;6741;48.964;9.406;2023-07-13T13:41:33;30.50;99.90
13344;DHT22;6741;48.964;9.406;2023-07-13T13:44:00;30.20;1.00
13344;DHT22;6741;48.964;9.406;2023-07-13T13:46:27;29.70;99.90
13344;DHT22;6741;48.964;9.406;2023-07-13T13:48:55;29.00;99.90
13344;DHT22;6741;48.964;9.406;2023-07-13T13:51:23;29.40;99.90
13344;DHT22;6741;48.964;9.406;2023-07-13T13:53:51;30.80;1.00
13344;DHT22;6741;48.964;9.406;2023-07-13T13:56:19;31.80;99.90
13344;DHT22;6741;48.964;9.406;2023-07-13T13:58:48;32.80;99.90
13344;DHT22;6741;48.964;9.406;2023-07-13T14:01:18;31.20;99.90
13344;DHT22;6741;48.964;9.406;2023-07-13T14:03:46;30.30;99.90
13344;DHT22;6741;48.964;9.406;2023-07-13T14:06:15;30.00;20.40
13344;DHT22;6741;48.964;9.406;2023-07-13T14:08:43;29.50;99.90
13344;DHT22;6741;48.964;9.406;2023-07-13T14:11:12;30.00;91.00
13344;DHT22;6741;48.964;9.406;2023-07-13T14:13:42;29.80;1.00
13344;DHT22;6741;48.964;9.406;2023-07-13T14:16:14;29.40;99.90
13344;DHT22;6741;48.964;9.406;2023-07-13T14:18:43;30.50;61.10
13344;DHT22;6741;48.964;9.406;2023-07-13T14:21:14;30.30;1.00
13344;DHT22;6741;48.964;9.406;2023-07-13T14:23:43;32.40;99.90
13344;DHT22;6741;48.964;9.406;2023-07-13T14:26:12;32.40;99.90
13344;DHT22;6741;48.964;9.406;2023-07-13T14:28:42;32.00;1.00
13344;DHT22;6741;48.964;9.406;2023-07-13T14:31:13;31.10;1.00
13344;DHT22;6741;48.964;9.406;2023-07-13T14:33:41;31.60;1.00
13344;DHT22;6741;48.964;9.406;2023-07-13T14:36:25;32.30;95.40
13344;DHT22;6741;48.964;9.406;2023-07-13T14:38:52;31.40;1.00
13344;DHT22;6741;48.964;9.406;2023-07-13T14:41:20;31.10;1.00
13344;DHT22;6741;48.964;9.406;2023-07-13T14:43:47;31.20;99.90
13344;DHT22;6741;48.964;9.406;2023-07-13T14:46:27;31.60;58.80
13344;DHT22;6741;48.964;9.406;2023-07-13T14:49:00;31.80;1.00
13344;DHT22;6741;48.964;9.406;2023-07-13T14:51:28;31.60;99.90
13344;DHT22;6741;48.964;9.406;2023-07-13T14:53:54;30.60;1.00
13344;DHT22;6741;48.964;9.406;2023-07-13T14:56:21;30.00;1.00
13344;DHT22;6741;48.964;9.406;2023-07-13T14:58:48;31.30;1.00
13344;DHT22;6741;48.964;9.406;2023-07-13T15:01:15;31.00;99.90
13344;DHT22;6741;48.964;9.406;2023-07-13T15:03:46;30.00;1.00
13344;DHT22;6741;48.964;9.406;2023-07-13T15:06:14;31.00;99.90
13344;DHT22;6741;48.964;9.406;2023-07-13T15:08:41;31.40;50.10
13344;DHT22;6741;48.964;9.406;2023-07-13T15:11:08;32.10;1.00
13344;DHT22;6741;48.964;9.406;2023-07-13T15:13:37;32.40;99.90
13344;DHT22;6741;48.964;9.406;2023-07-13T15:16:09;30.90;1.00
13344;DHT22;6741;48.964;9.406;2023-07-13T15:18:40;28.50;1.00
13344;DHT22;6741;48.964;9.406;2023-07-13T15:21:10;29.10;99.90
13344;DHT22;6741;48.964;9.406;2023-07-13T15:23:39;29.50;99.90
13344;DHT22;6741;48.964;9.406;2023-07-13T15:26:09;30.60;1.00
13344;DHT22;6741;48.964;9.406;2023-07-13T15:28:37;31.00;99.90
13344;DHT22;6741;48.964;9.406;2023-07-13T15:31:17;31.30;1.00
13344;DHT22;6741;48.964;9.406;2023-07-13T15:33:44;30.70;99.90
13344;DHT22;6741;48.964;9.406;2023-07-13T15:36:15;30.80;99.90
13344;DHT22;6741;48.964;9.406;2023-07-13T15:38:43;30.30;1.00
13344;DHT22;6741;48.964;9.406;2023-07-13T15:41:17;30.00;1.00
13344;DHT22;6741;48.964;9.406;2023-07-13T15:43:44;29.80;1.00
13344;DHT22;6741;48.964;9.406;2023-07-13T15:46:11;29.30;1.00
13344;DHT22;6741;48.964;9.406;2023-07-13T15:48:38;28.80;1.00
13344;DHT22;6741;48.964;9.406;2023-07-13T15:51:08;29.20;1.00
13344;DHT22;6741;48.964;9.406;2023-07-13T15:53:39;29.60;1.00
13344;DHT22;6741;48.964;9.406;2023-07-13T15:56:17;29.70;99.90
13344;DHT22;6741;48.964;9.406;2023-07-13T15:58:44;29.60;1.00
13344;DHT22;6741;48.964;9.406;2023-07-13T16:01:12;29.50;99.90
13344;DHT22;6741;48.964;9.406;2023-07-13T16:03:40;29.40;1.00
13344;DHT22;6741;48.964;9.406;2023-07-13T16:06:12;29.30;99.90
13344;DHT22;6741;48.964;9.406;2023-07-13T16:08:42;29.40;99.90
13344;DHT22;6741;48.964;9.406;2023-07-13T16:11:16;28.90;99.90